Time;durP1;ratioP1;P1;durP2;ratioP2;P2;SDS_P1;SDS_P2;PMS_P1;PMS_P2;Temp;Humidity;BMP_temperature;BMP_pressure;BME280_temperature;BME280_humidity;BME280_pressure;Samples;Min_cycle;Max_cycle;Signal;HPM_P1;HPM_P2
2023/08/01 00:00:17;;;;;;;16.20;4.50;;;;;;;25.01;45.82;98164.23;67677;1280;1016048;-64
2023/08/01 00:03:40;;;;;;;18.20;4.80;;;;;;;24.97;46.19;98160.88;67634;1280;1016166;-64
2023/08/01 00:06:42;;;;;;;;;;;;;;;25.05;45.96;98155.50;67687;1280;1016485;-64
2023/08/01 00:09:45;;;;;;;16.80;4.30;;;;;;;25.05;46.20;98149.07;67653;1280;1016363;-64
2023/08/01 00:12:47;;;;;;;;;;;;;;;25.11;46.12;98142.00;67680;1280;1016139;-64
2023/08/01 00:15:49;;;;;;;20.00;4.80;;;;;;;25.11;46.03;98135.50;67678;1280;1016327;-64
2023/08/01 00:18:52;;;;;;;;;;;;;;;25.10;45.88;98133.67;67696;1280;1016316;-64
2023/08/01 00:21:54;;;;;;;14.90;3.90;;;;;;;24.91;46.22;98130.84;67705;1280;1016413;-64
2023/08/01 00:24:56;;;;;;;;;;;;;;;24.94;46.05;98124.00;67714;1280;1016741;-64
2023/08/01 00:27:59;;;;;;;17.90;4.10;;;;;;;24.89;46.14;98121.04;67656;1280;1016500;-64
2023/08/01 00:31:01;;;;;;;;;;;;;;;24.86;46.07;98117.78;67668;1280;1016333;-64
2023/08/01 00:34:04;;;;;;;21.40;4.00;;;;;;;24.78;46.18;98113.81;67692;1280;1015876;-64
2023/08/01 00:37:06;;;;;;;19.80;4.30;;;;;;;24.76;46.14;98110.00;67609;1280;1016113;-64
2023/08/01 00:40:08;;;;;;;15.20;4.10;;;;;;;24.64;46.34;98104.85;67642;1280;1016316;-64
2023/08/01 00:43:11;;;;;;;;;;;;;;;24.64;46.38;98107.00;67640;1280;1015707;-64
2023/08/01 00:46:13;;;;;;;17.10;4.40;;;;;;;24.69;46.16;98106.35;67617;1280;1016778;-64
2023/08/01 00:49:15;;;;;;;;;;;;;;;24.61;46.10;98106.16;67697;1280;1018270;-64
2023/08/01 00:52:18;;;;;;;15.60;4.10;;;;;;;24.37;46.71;98104.20;67676;1280;1018772;-64
2023/08/01 00:55:20;;;;;;;16.10;4.40;;;;;;;24.51;46.45;98100.63;67706;1280;1016444;-64
2023/08/01 00:58:23;;;;;;;;;;;;;;;24.66;45.98;98099.65;67712;1280;1017841;-64
2023/08/01 01:01:25;;;;;;;21.00;4.10;;;;;;;24.53;46.35;98097.04;67625;1280;1016443;-64
2023/08/01 01:04:27;;;;;;;;;;;;;;;24.46;46.66;98087.89;67606;1280;1016295;-64
2023/08/01 01:07:30;;;;;;;15.00;4.20;;;;;;;24.25;47.22;98087.41;67655;1280;1016862;-64
2023/08/01 01:10:33;;;;;;;15.20;3.80;;;;;;;24.35;46.98;98077.89;67694;1280;1016196;-64
2023/08/01 01:13:35;;;;;;;;;;;;;;;24.42;47.01;98071.06;67652;1280;1018470;-64
2023/08/01 01:16:37;;;;;;;13.20;3.90;;;;;;;24.46;46.84;98065.02;67677;1280;1016325;-64
2023/08/01 01:19:40;;;;;;;;;;;;;;;24.50;46.82;98060.61;67659;1280;1016241;-64
2023/08/01 01:22:43;;;;;;;17.00;4.30;;;;;;;24.37;47.24;98058.59;67689;1280;1016904;-64
2023/08/01 01:25:46;;;;;;;16.20;4.20;;;;;;;24.40;47.32;98056.67;67651;1280;1016463;-64
2023/08/01 01:28:48;;;;;;;;;;;;;;;24.40;47.20;98056.46;67707;1280;1015979;-64
2023/08/01 01:31:50;;;;;;;17.30;4.40;;;;;;;24.46;47.16;98052.77;67703;1280;1016529;-64
2023/08/01 01:34:53;;;;;;;15.40;3.90;;;;;;;24.67;46.54;98046.38;67679;1280;1016424;-64
2023/08/01 01:37:58;;;;;;;;;;;;;;;24.67;46.67;98044.52;67624;1280;1016621;-64
2023/08/01 01:41:00;;;;;;;18.10;4.30;;;;;;;24.59;46.76;98042.14;67701;1280;1016430;-64
2023/08/01 01:44:03;;;;;;;18.70;4.30;;;;;;;24.57;46.88;98037.39;67675;1280;1018566;-64
2023/08/01 01:47:05;;;;;;;;;;;;;;;24.66;46.78;98035.07;67581;1280;1016396;-65
2023/08/01 01:50:08;;;;;;;16.80;4.50;;;;;;;24.64;46.61;98029.99;67595;1280;1016588;-64
2023/08/01 01:53:10;;;;;;;;;;;;;;;24.59;46.70;98020.54;67571;1280;1015965;-64
2023/08/01 01:56:13;;;;;;;14.60;3.70;;;;;;;24.54;46.66;98010.07;67687;1280;1016518;-64
2023/08/01 01:59:15;;;;;;;;;;;;;;;24.50;46.78;98006.64;67718;1280;1018677;-64
2023/08/01 02:02:17;;;;;;;20.60;4.30;;;;;;;24.48;46.78;98002.23;67664;1280;1016363;-64
2023/08/01 02:05:20;;;;;;;;;;;;;;;24.41;46.95;97999.95;67630;1280;1016544;-64
2023/08/01 02:08:22;;;;;;;17.40;4.40;;;;;;;24.48;46.68;97995.14;67630;1280;1017280;-64
2023/08/01 02:11:25;;;;;;;;;;;;;;;24.54;46.62;97996.30;67647;1280;1016490;-64
2023/08/01 02:14:27;;;;;;;20.00;4.10;;;;;;;24.52;46.58;97996.55;67608;1280;1015806;-64
2023/08/01 02:17:29;;;;;;;15.70;3.60;;;;;;;24.56;46.57;97991.57;67655;1280;1016233;-64
2023/08/01 02:20:32;;;;;;;17.20;4.40;;;;;;;24.71;46.26;97990.17;67667;1280;1016867;-64
2023/08/01 02:23:36;;;;;;;;;;;;;;;24.51;46.66;97985.08;67643;1280;1016051;-64
2023/08/01 02:26:38;;;;;;;16.70;3.90;;;;;;;24.57;46.48;97977.35;67664;1280;1016422;-64
2023/08/01 02:29:41;;;;;;;;;;;;;;;24.45;46.82;97968.49;67686;1280;1018062;-64
2023/08/01 02:32:43;;;;;;;13.00;3.80;;;;;;;24.56;46.58;97965.13;67692;1280;1018317;-64
2023/08/01 02:35:45;;;;;;;;;;;;;;;24.52;46.50;97959.64;67682;1280;1016548;-64
2023/08/01 02:38:48;;;;;;;13.10;4.00;;;;;;;24.53;46.67;97954.08;67687;1280;1016435;-64
2023/08/01 02:41:50;;;;;;;;;;;;;;;24.69;46.19;97950.52;67639;1280;1016404;-64
2023/08/01 02:44:53;;;;;;;16.90;4.20;;;;;;;24.80;46.08;97945.66;67653;1280;1016529;-64
2023/08/01 02:47:55;;;;;;;;;;;;;;;24.76;46.14;97940.31;67658;1280;1016113;-64
2023/08/01 02:50:57;;;;;;;16.70;4.20;;;;;;;24.70;46.14;97936.80;67673;1280;1016403;-64
2023/08/01 02:54:00;;;;;;;14.70;3.70;;;;;;;24.71;45.90;97936.88;67674;1280;1018837;-64
2023/08/01 02:57:02;;;;;;;;;;;;;;;24.71;46.01;97931.71;67681;1280;1016268;-64
2023/08/01 03:00:05;;;;;;;19.70;4.80;;;;;;;24.76;45.80;97930.27;67689;1279;1016398;-64
2023/08/01 03:03:08;;;;;;;14.00;3.50;;;;;;;24.74;45.78;97929.91;67684;1280;1018879;-64
2023/08/01 03:06:10;;;;;;;;;;;;;;;24.73;46.06;97926.73;67638;1279;1016361;-64
2023/08/01 03:09:13;;;;;;;18.70;3.90;;;;;;;24.84;45.67;97924.71;67680;1280;1016114;-64
2023/08/01 03:12:15;;;;;;;;;;;;;;;24.71;45.99;97920.64;67687;1280;1016150;-64
2023/08/01 03:15:17;;;;;;;18.40;4.50;;;;;;;24.67;46.09;97915.91;67632;1280;1016683;-64
2023/08/01 03:18:20;;;;;;;14.40;3.90;;;;;;;24.78;46.11;97908.71;67591;1280;1016381;-64
2023/08/01 03:21:22;;;;;;;15.70;4.00;;;;;;;24.87;45.85;97906.47;67665;1280;1016139;-64
2023/08/01 03:24:25;;;;;;;18.70;4.10;;;;;;;24.89;46.00;97904.48;67599;1280;1016443;-64
2023/08/01 03:27:27;;;;;;;;;;;;;;;24.95;45.89;97901.59;67694;1280;1016555;-64
2023/08/01 03:30:30;;;;;;;16.20;4.30;;;;;;;25.04;45.76;97900.79;67676;1280;1016329;-64
2023/08/01 03:33:32;;;;;;;;;;;;;;;25.03;45.58;97900.46;67582;1280;1016358;-64
2023/08/01 03:36:35;;;;;;;17.90;4.50;;;;;;;24.95;45.77;97893.76;67683;1280;1016308;-64
2023/08/01 03:39:37;;;;;;;;;;;;;;;25.06;45.59;97894.05;67714;1280;1016950;-64
2023/08/01 03:42:40;;;;;;;17.10;4.60;;;;;;;25.10;45.82;97895.98;67702;1280;1015921;-64
2023/08/01 03:45:42;;;;;;;16.00;4.00;;;;;;;25.09;45.90;97895.50;67723;1280;1016589;-64
2023/08/01 03:48:45;;;;;;;;;;;;;;;25.07;45.98;97892.98;67752;1280;1016475;-64
2023/08/01 03:51:47;;;;;;;18.10;4.40;;;;;;;25.38;45.45;97884.35;67712;1280;1018740;-64
2023/08/01 03:54:49;;;;;;;;;;;;;;;25.46;45.34;97880.55;67675;1280;1016668;-64
2023/08/01 03:57:52;;;;;;;15.40;3.60;;;;;;;25.39;45.61;97874.39;67700;1280;1016076;-64
2023/08/01 04:00:54;;;;;;;18.00;4.70;;;;;;;25.54;45.38;97870.03;67670;1280;1016456;-64
2023/08/01 04:03:57;;;;;;;;;;;;;;;25.60;45.39;97868.14;67759;1280;1016523;-64
2023/08/01 04:06:59;;;;;;;17.10;4.10;;;;;;;25.84;45.24;97876.46;67711;1280;1016453;-64
2023/08/01 04:10:01;;;;;;;;;;;;;;;26.09;44.88;97878.61;67687;1280;1016526;-64
2023/08/01 04:13:04;;;;;;;16.40;4.50;;;;;;;26.32;44.64;97877.58;67682;1280;1016417;-64
2023/08/01 04:16:06;;;;;;;;;;;;;;;26.41;44.59;97875.08;67742;1280;1016184;-64
2023/08/01 04:19:09;;;;;;;15.70;4.30;;;;;;;26.47;44.76;97872.87;67758;1280;1016487;-64
2023/08/01 04:22:12;;;;;;;15.40;4.30;;;;;;;26.88;44.15;97867.70;67704;1280;1016204;-63
2023/08/01 04:25:14;;;;;;;19.50;4.20;;;;;;;27.04;43.85;97867.12;67727;1280;1016498;-64
2023/08/01 04:28:16;;;;;;;;;;;;;;;27.06;43.80;97865.50;67734;1280;1016596;-64
2023/08/01 04:31:19;;;;;;;16.70;3.90;;;;;;;27.11;43.60;97862.88;67764;1280;1016078;-64
2023/08/01 04:34:21;;;;;;;;;;;;;;;27.25;43.45;97856.72;67754;1280;1016410;-64
2023/08/01 04:37:25;;;;;;;16.80;4.00;;;;;;;27.49;43.31;97854.84;67732;1280;1016536;-64
2023/08/01 04:40:28;;;;;;;14.30;3.90;;;;;;;27.72;43.06;97856.69;67744;1280;1016494;-63
2023/08/01 04:43:30;;;;;;;18.00;4.20;;;;;;;27.76;43.01;97856.52;67732;1280;1015792;-63
2023/08/01 04:46:32;;;;;;;14.90;4.00;;;;;;;28.02;42.96;97854.80;67703;1280;1016520;-64
2023/08/01 04:49:35;;;;;;;12.80;3.90;;;;;;;28.16;42.72;97847.52;67627;1280;1016484;-64
2023/08/01 04:52:37;;;;;;;15.70;3.90;;;;;;;28.48;42.24;97850.08;67696;1280;1016961;-64
2023/08/01 04:55:40;;;;;;;17.50;3.70;;;;;;;28.74;41.76;97842.44;67760;1280;1016030;-64
2023/08/01 04:58:43;;;;;;;15.40;3.80;;;;;;;28.73;41.93;97841.95;67756;1280;1016517;-64
2023/08/01 05:01:46;;;;;;;15.90;3.90;;;;;;;28.88;41.74;97838.82;67738;1280;1016445;-64
2023/08/01 05:04:48;;;;;;;13.20;3.80;;;;;;;29.23;41.51;97835.51;67727;1280;1016531;-64
2023/08/01 05:07:50;;;;;;;13.50;3.90;;;;;;;29.33;41.47;97828.09;67710;1280;1015785;-64
2023/08/01 05:10:53;;;;;;;16.20;4.10;;;;;;;29.45;41.52;97830.30;67743;1280;1016468;-64
2023/08/01 05:13:55;;;;;;;14.70;3.90;;;;;;;29.49;41.40;97827.46;67743;1280;1016516;-64
2023/08/01 05:16:58;;;;;;;13.60;3.70;;;;;;;29.44;41.39;97833.20;67759;1279;1016430;-64
2023/08/01 05:20:00;;;;;;;16.60;4.10;;;;;;;29.62;41.21;97828.14;67731;1280;1016462;-63
2023/08/01 05:23:02;;;;;;;13.70;4.00;;;;;;;29.69;40.95;97824.29;67756;1280;1016430;-64
2023/08/01 05:26:05;;;;;;;17.40;3.80;;;;;;;29.88;41.09;97822.48;67748;1259;1016419;-63
2023/08/01 05:29:07;;;;;;;14.40;3.80;;;;;;;30.25;40.72;97827.60;67780;1280;1016278;-64
2023/08/01 05:32:10;;;;;;;17.30;3.80;;;;;;;30.45;40.38;97826.14;67772;1280;1018414;-64
2023/08/01 05:35:12;;;;;;;15.50;4.00;;;;;;;30.58;40.46;97821.81;67712;1280;1017572;-64
2023/08/01 05:38:14;;;;;;;16.20;3.60;;;;;;;30.90;39.81;97822.48;67718;1280;1016677;-63
2023/08/01 05:41:19;;;;;;;14.30;4.20;;;;;;;30.88;39.82;97822.82;67733;1280;1016506;-63
2023/08/01 05:44:21;;;;;;;13.00;3.40;;;;;;;30.80;39.48;97820.17;67714;1280;1016225;-63
2023/08/01 05:47:24;;;;;;;11.40;3.30;;;;;;;30.66;39.41;97815.80;67743;1280;1016782;-63
2023/08/01 05:50:26;;;;;;;13.10;3.30;;;;;;;30.71;39.16;97814.70;67635;1280;1016113;-64
2023/08/01 05:53:30;;;;;;;13.60;3.40;;;;;;;30.79;38.96;97815.08;67693;1280;1016367;-64
2023/08/01 05:56:32;;;;;;;14.50;3.50;;;;;;;30.72;38.97;97817.63;67722;1280;1016921;-64
2023/08/01 05:59:34;;;;;;;14.60;3.70;;;;;;;30.94;38.94;97814.27;67738;1280;1015753;-64
2023/08/01 06:02:37;;;;;;;13.20;3.00;;;;;;;31.10;38.51;97807.92;67724;1258;1015946;-63
2023/08/01 06:05:39;;;;;;;15.20;3.10;;;;;;;31.19;38.33;97799.16;67764;1280;1016371;-64
2023/08/01 06:08:42;;;;;;;14.50;3.60;;;;;;;31.27;38.37;97800.88;67746;1280;1016012;-64
2023/08/01 06:11:44;;;;;;;12.70;3.50;;;;;;;31.41;38.40;97801.48;67737;1280;1016458;-64
2023/08/01 06:14:47;;;;;;;14.50;3.10;;;;;;;31.61;38.22;97802.02;67686;1280;1016378;-64
2023/08/01 06:17:49;;;;;;;16.80;3.40;;;;;;;31.64;37.85;97806.19;67712;1280;1016263;-64
2023/08/01 06:20:51;;;;;;;23.10;3.60;;;;;;;31.85;37.46;97801.20;67688;1280;1016459;-64
2023/08/01 06:23:54;;;;;;;12.40;3.50;;;;;;;32.02;37.42;97797.27;67566;1281;1016906;-62
2023/08/01 06:26:56;;;;;;;17.20;3.40;;;;;;;32.20;36.94;97789.80;67551;1280;1019462;-60
2023/08/01 06:29:59;;;;;;;20.90;3.60;;;;;;;32.38;36.90;97790.37;67636;1280;1016695;-65
2023/08/01 06:33:01;;;;;;;18.30;3.50;;;;;;;32.39;36.57;97793.95;67598;1280;1016738;-60
2023/08/01 06:36:03;;;;;;;13.10;3.30;;;;;;;32.43;36.42;97791.44;67561;1281;1016472;-60
2023/08/01 06:39:06;;;;;;;14.30;3.20;;;;;;;32.40;35.64;97793.42;67601;1280;1016252;-60
2023/08/01 06:42:08;;;;;;;12.00;3.30;;;;;;;32.21;35.68;97794.38;67611;1280;1019351;-59
2023/08/01 06:45:11;;;;;;;16.30;3.30;;;;;;;32.08;35.86;97794.51;67632;1281;1016291;-60
2023/08/01 06:48:13;;;;;;;12.90;3.00;;;;;;;32.06;35.60;97793.52;67572;1281;1015820;-66
2023/08/01 06:51:16;;;;;;;12.10;3.10;;;;;;;31.87;35.93;97792.80;67602;1281;1018856;-65
2023/08/01 06:54:18;;;;;;;13.10;3.10;;;;;;;31.87;35.98;97789.18;67626;1281;1016494;-60
2023/08/01 06:57:21;;;;;;;15.00;3.60;;;;;;;31.72;35.94;97786.54;67624;1280;1016391;-61
2023/08/01 07:00:23;;;;;;;11.30;2.90;;;;;;;31.66;36.11;97791.68;67628;1281;1016498;-62
2023/08/01 07:03:26;;;;;;;15.70;3.30;;;;;;;31.78;35.66;97791.79;67591;1281;1016398;-64
2023/08/01 07:06:28;;;;;;;14.00;3.50;;;;;;;31.87;35.77;97795.67;67568;1281;1016349;-65
2023/08/01 07:09:31;;;;;;;9.80;3.00;;;;;;;32.01;35.89;97797.65;67607;1281;1016431;-64
2023/08/01 07:12:33;;;;;;;13.00;3.40;;;;;;;32.24;35.72;97789.29;67638;1281;1015937;-66
2023/08/01 07:15:36;;;;;;;15.70;3.10;;;;;;;32.51;35.42;97789.32;67595;1281;1018191;-66
2023/08/01 07:18:38;;;;;;;14.40;3.10;;;;;;;32.60;35.48;97787.58;67576;1281;1016841;-61
2023/08/01 07:21:40;;;;;;;10.10;2.80;;;;;;;32.82;35.38;97786.96;67564;1281;1016468;-61
2023/08/01 07:24:43;;;;;;;11.10;3.00;;;;;;;32.96;34.26;97781.02;67624;1280;1016871;-61
2023/08/01 07:27:45;;;;;;;15.30;3.30;;;;;;;32.97;34.70;97779.27;67587;1281;1016485;-61
2023/08/01 07:30:48;;;;;;;13.80;3.40;;;;;;;32.68;34.60;97776.45;65541;1281;1016430;-60
2023/08/01 07:33:51;;;;;;;15.00;3.30;;;;;;;32.72;34.60;97779.96;67612;1281;1016471;-65
2023/08/01 07:36:53;;;;;;;10.60;2.90;;;;;;;32.74;35.03;97780.19;67606;1281;1018861;-61
2023/08/01 07:39:56;;;;;;;13.60;3.30;;;;;;;32.85;34.79;97777.11;67506;1281;1016241;-61
2023/08/01 07:42:59;;;;;;;13.90;3.50;;;;;;;33.00;34.43;97775.23;67549;1281;1018018;-65
2023/08/01 07:46:02;;;;;;;13.20;3.20;;;;;;;32.87;34.65;97769.58;67625;1281;1015760;-66
2023/08/01 07:49:04;;;;;;;12.50;3.10;;;;;;;32.97;34.63;97767.60;67558;1281;1016459;-62
2023/08/01 07:52:06;;;;;;;14.60;3.00;;;;;;;32.92;34.48;97765.09;67553;1281;1016907;-62
2023/08/01 07:55:09;;;;;;;10.10;3.00;;;;;;;32.77;34.79;97765.55;67528;1281;1016427;-61
2023/08/01 07:58:11;;;;;;;11.50;3.20;;;;;;;32.53;34.70;97759.76;67647;1280;1015944;-62
2023/08/01 08:01:14;;;;;;;10.30;3.10;;;;;;;32.39;34.93;97758.70;67622;1281;1018751;-62
2023/08/01 08:04:16;;;;;;;13.80;3.40;;;;;;;32.47;35.08;97754.23;67581;1281;1017673;-62
2023/08/01 08:07:19;;;;;;;15.50;3.10;;;;;;;32.61;35.03;97745.52;67593;1280;1016446;-62
2023/08/01 08:10:21;;;;;;;11.60;3.00;;;;;;;32.90;35.13;97744.21;67607;1281;1016480;-64
2023/08/01 08:13:25;;;;;;;12.10;3.10;;;;;;;33.13;34.83;97744.42;67620;1281;1016398;-61
2023/08/01 08:16:27;;;;;;;10.00;2.90;;;;;;;33.23;34.68;97742.29;67580;1281;1016158;-62
2023/08/01 08:19:30;;;;;;;11.00;3.00;;;;;;;33.25;34.67;97740.63;67633;1281;1016193;-61
2023/08/01 08:22:32;;;;;;;9.70;2.90;;;;;;;33.31;34.74;97741.23;67565;1281;1016198;-62
2023/08/01 08:25:35;;;;;;;9.90;3.40;;;;;;;33.41;34.81;97741.79;67560;1281;1016477;-62
2023/08/01 08:28:37;;;;;;;13.30;3.20;;;;;;;33.65;34.83;97741.02;67607;1281;1016740;-61
2023/08/01 08:31:39;;;;;;;14.70;3.50;;;;;;;33.74;34.53;97742.67;67596;1281;1016462;-60
2023/08/01 08:34:42;;;;;;;12.90;3.20;;;;;;;33.63;34.52;97738.78;67609;1280;1016584;-62
2023/08/01 08:37:44;;;;;;;12.50;3.40;;;;;;;33.63;34.25;97743.04;67628;1280;1016886;-66
2023/08/01 08:40:47;;;;;;;12.90;3.30;;;;;;;33.65;34.24;97737.61;67623;1281;1016246;-65
2023/08/01 08:43:49;;;;;;;12.30;3.20;;;;;;;33.71;34.62;97738.70;67545;1280;1016387;-64
2023/08/01 08:46:51;;;;;;;12.20;3.30;;;;;;;33.79;34.66;97738.02;67569;1281;1016469;-63
2023/08/01 08:49:54;;;;;;;15.00;3.40;;;;;;;34.02;34.77;97735.89;67579;1281;1017101;-61
2023/08/01 08:52:56;;;;;;;10.40;3.40;;;;;;;34.19;34.36;97739.48;67560;1281;1018040;-63
2023/08/01 08:55:59;;;;;;;12.00;3.40;;;;;;;34.12;34.20;97739.10;67569;1280;1017248;-60
2023/08/01 08:59:01;;;;;;;10.40;3.20;;;;;;;33.91;34.28;97743.35;67582;1281;1016227;-60
2023/08/01 09:02:04;;;;;;;13.80;3.40;;;;;;;33.88;34.37;97745.14;67554;1281;1016804;-63
2023/08/01 09:05:06;;;;;;;10.10;3.10;;;;;;;33.80;34.37;97743.00;67640;1281;1016396;-60
2023/08/01 09:08:09;;;;;;;10.50;3.20;;;;;;;33.91;34.37;97746.45;67598;1281;1016447;-60
2023/08/01 09:11:11;;;;;;;10.70;3.10;;;;;;;33.97;34.16;97751.02;67564;1280;1016240;-62
2023/08/01 09:14:13;;;;;;;13.30;3.10;;;;;;;33.88;34.23;97748.84;67581;1280;1016407;-62
2023/08/01 09:17:18;;;;;;;12.00;3.60;;;;;;;33.84;34.57;97755.96;67578;1281;1016629;-61
2023/08/01 09:20:20;;;;;;;14.80;3.50;;;;;;;33.81;35.18;97753.30;67612;1281;1016436;-60
2023/08/01 09:23:23;;;;;;;13.20;3.90;;;;;;;33.64;34.89;97756.52;67557;1281;1016518;-60
2023/08/01 09:26:25;;;;;;;17.70;4.60;;;;;;;33.37;35.63;97756.30;67604;1281;1016498;-61
2023/08/01 09:29:28;;;;;;;16.30;4.10;;;;;;;33.00;36.06;97751.10;67622;1281;1016205;-65
2023/08/01 09:32:31;;;;;;;13.40;3.70;;;;;;;32.65;36.55;97746.65;67591;1281;1016449;-65
2023/08/01 09:35:33;;;;;;;13.90;3.70;;;;;;;32.60;36.77;97745.63;67564;1280;1017181;-63
2023/08/01 09:38:36;;;;;;;13.80;4.00;;;;;;;32.41;37.25;97737.05;67583;1281;1016263;-63
2023/08/01 09:41:38;;;;;;;15.60;3.80;;;;;;;32.29;37.59;97735.79;67477;1281;1016187;-63
2023/08/01 09:44:41;;;;;;;12.60;3.40;;;;;;;32.47;37.67;97729.98;67559;1281;1016708;-64
2023/08/01 09:47:43;;;;;;;11.40;3.40;;;;;;;32.82;37.75;97730.77;67597;1281;1016499;-63
2023/08/01 09:50:46;;;;;;;11.70;3.50;;;;;;;32.72;38.06;97721.39;67487;1281;1016571;-61
2023/08/01 09:53:49;;;;;;;15.00;3.90;;;;;;;32.78;37.89;97718.93;67517;1281;1017679;-60
2023/08/01 09:56:51;;;;;;;14.70;3.50;;;;;;;32.87;37.53;97708.70;67491;1281;1016980;-61
2023/08/01 09:59:54;;;;;;;14.00;3.70;;;;;;;32.99;37.68;97706.73;67509;1281;1017018;-61
2023/08/01 10:02:56;;;;;;;10.90;3.50;;;;;;;33.06;37.83;97702.30;67617;1281;1016417;-61
2023/08/01 10:05:58;;;;;;;13.00;3.70;;;;;;;33.13;37.82;97698.73;67630;1281;1016239;-60
2023/08/01 10:09:01;;;;;;;15.90;3.70;;;;;;;33.26;37.91;97693.23;67591;1280;1016210;-61
2023/08/01 10:12:03;;;;;;;13.80;3.70;;;;;;;33.27;37.75;97688.75;67631;1281;1016210;-61
2023/08/01 10:15:06;;;;;;;16.30;4.40;;;;;;;33.50;37.79;97682.36;67654;1280;1016545;-61
2023/08/01 10:18:08;;;;;;;17.00;4.30;;;;;;;33.49;37.89;97681.71;67608;1281;1016913;-60
2023/08/01 10:21:11;;;;;;;15.40;4.50;;;;;;;33.67;37.56;97675.97;67563;1281;1016116;-61
2023/08/01 10:24:13;;;;;;;15.50;4.20;;;;;;;33.83;37.31;97669.05;67600;1281;1017034;-61
2023/08/01 10:27:15;;;;;;;12.90;3.40;;;;;;;33.92;37.57;97668.73;67621;1281;1016505;-61
2023/08/01 10:30:18;;;;;;;15.10;3.80;;;;;;;33.94;37.43;97668.52;67601;1281;1016248;-61
2023/08/01 10:33:20;;;;;;;13.90;3.70;;;;;;;34.41;36.90;97665.50;67612;1281;1016433;-61
2023/08/01 10:36:23;;;;;;;14.80;4.20;;;;;;;34.49;36.77;97665.31;67572;1280;1016452;-61
2023/08/01 10:39:26;;;;;;;12.70;3.50;;;;;;;34.55;36.76;97663.01;67628;1281;1016667;-61
2023/08/01 10:42:28;;;;;;;14.30;3.40;;;;;;;34.58;36.68;97656.13;67639;1281;1016466;-61
2023/08/01 10:45:30;;;;;;;11.50;3.40;;;;;;;34.88;36.24;97650.14;67601;1281;1016333;-62
2023/08/01 10:48:33;;;;;;;16.50;3.90;;;;;;;34.80;36.40;97647.20;67608;1281;1018507;-65
2023/08/01 10:51:35;;;;;;;17.30;4.10;;;;;;;34.87;36.23;97641.63;67541;1281;1016355;-61
2023/08/01 10:54:40;;;;;;;14.70;3.80;;;;;;;35.13;36.65;97638.98;67605;1281;1016733;-64
2023/08/01 10:57:43;;;;;;;12.60;3.70;;;;;;;35.46;35.35;97631.85;67586;1281;1016185;-63
2023/08/01 11:00:45;;;;;;;12.00;3.80;;;;;;;35.68;34.51;97627.13;67604;1281;1018750;-61
2023/08/01 11:03:47;;;;;;;17.50;4.70;;;;;;;35.46;34.06;97624.54;67596;1281;1016509;-61
2023/08/01 11:06:50;;;;;;;12.10;3.90;;;;;;;35.73;33.88;97627.95;67613;1281;1016478;-63
2023/08/01 11:09:52;;;;;;;11.60;3.90;;;;;;;35.54;33.29;97627.66;67604;1281;1016727;-64
2023/08/01 11:12:55;;;;;;;18.70;4.40;;;;;;;35.20;33.82;97627.92;67632;1280;1016466;-64
2023/08/01 11:15:57;;;;;;;16.30;4.40;;;;;;;35.20;33.82;97629.08;67602;1281;1016483;-64
2023/08/01 11:18:59;;;;;;;15.10;4.40;;;;;;;35.24;33.16;97627.19;67577;1281;1016450;-64
2023/08/01 11:22:02;;;;;;;14.90;4.60;;;;;;;34.74;33.14;97632.54;67588;1281;1016873;-65
2023/08/01 11:25:04;;;;;;;18.00;4.80;;;;;;;33.99;34.01;97636.90;67630;1281;1016347;-62
2023/08/01 11:28:07;;;;;;;16.60;4.50;;;;;;;33.69;34.91;97635.52;67558;1281;1016234;-61
2023/08/01 11:31:10;;;;;;;16.90;4.80;;;;;;;33.37;35.42;97631.27;67579;1281;1016224;-63
2023/08/01 11:34:12;;;;;;;16.40;4.50;;;;;;;33.15;35.86;97635.35;67624;1281;1016317;-61
2023/08/01 11:37:14;;;;;;;15.60;4.30;;;;;;;33.18;35.94;97636.89;67611;1281;1016512;-63
2023/08/01 11:40:17;;;;;;;16.80;4.60;;;;;;;33.08;36.42;97634.14;67618;1281;1016772;-61
2023/08/01 11:43:19;;;;;;;15.40;4.20;;;;;;;33.08;37.00;97636.04;67517;1281;1015855;-61
2023/08/01 11:46:22;;;;;;;17.40;4.40;;;;;;;33.31;36.82;97638.10;67614;1281;1016513;-60
2023/08/01 11:49:26;;;;;;;15.40;4.60;;;;;;;33.43;37.12;97637.79;67658;1281;1016793;-63
2023/08/01 11:52:28;;;;;;;16.70;4.60;;;;;;;33.52;37.33;97640.94;67584;1281;1016404;-64
2023/08/01 11:55:31;;;;;;;14.60;4.20;;;;;;;33.42;37.84;97638.44;67599;1281;1016944;-65
2023/08/01 11:58:33;;;;;;;15.90;4.10;;;;;;;33.50;38.14;97636.16;67649;1281;1016338;-64
2023/08/01 12:01:35;;;;;;;15.30;4.30;;;;;;;33.81;38.06;97642.20;67636;1280;1016404;-64
2023/08/01 12:04:38;;;;;;;13.90;4.40;;;;;;;33.70;38.38;97643.02;67638;1281;1016295;-62
2023/08/01 12:07:40;;;;;;;17.20;5.00;;;;;;;33.66;38.51;97638.06;67599;1281;1016266;-63
2023/08/01 12:10:43;;;;;;;13.70;4.60;;;;;;;33.37;38.65;97644.36;67578;1281;1016484;-64
2023/08/01 12:13:45;;;;;;;16.50;4.70;;;;;;;33.31;38.80;97638.38;67605;1281;1016659;-64
2023/08/01 12:16:47;;;;;;;13.70;4.30;;;;;;;33.56;38.72;97640.79;67657;1281;1016261;-62
2023/08/01 12:19:50;;;;;;;17.50;4.80;;;;;;;33.59;38.69;97643.34;67611;1281;1016598;-62
2023/08/01 12:22:52;;;;;;;16.00;4.60;;;;;;;33.48;39.45;97647.25;67591;1281;1016282;-64
2023/08/01 12:25:54;;;;;;;18.60;4.80;;;;;;;33.09;39.74;97645.27;67586;1281;1017387;-62
2023/08/01 12:28:57;;;;;;;13.90;4.60;;;;;;;32.70;40.39;97636.37;67651;1280;1016313;-62
2023/08/01 12:31:59;;;;;;;15.80;5.30;;;;;;;32.37;40.88;97635.40;67586;1281;1016896;-63
2023/08/01 12:35:02;;;;;;;14.50;4.40;;;;;;;31.97;41.64;97633.92;67633;1281;1017537;-64
2023/08/01 12:38:04;;;;;;;14.20;4.40;;;;;;;31.58;42.41;97634.27;67601;1281;1018112;-64
2023/08/01 12:41:06;;;;;;;14.30;4.20;;;;;;;31.35;42.66;97632.55;67606;1281;1016409;-64
2023/08/01 12:44:09;;;;;;;14.10;4.30;;;;;;;31.24;43.11;97626.66;67552;1281;1016853;-63
2023/08/01 12:47:11;;;;;;;14.80;4.30;;;;;;;31.16;43.38;97626.27;67630;1281;1016397;-62
2023/08/01 12:50:14;;;;;;;14.60;4.30;;;;;;;31.02;43.41;97631.96;67624;1281;1016061;-64
2023/08/01 12:53:16;;;;;;;15.30;4.70;;;;;;;31.09;43.61;97627.92;67612;1280;1015699;-63
2023/08/01 12:56:18;;;;;;;15.30;4.50;;;;;;;31.29;43.66;97619.83;67627;1281;1016295;-63
2023/08/01 12:59:21;;;;;;;15.20;4.30;;;;;;;31.33;43.69;97616.77;67631;1281;1016312;-63
2023/08/01 13:02:23;;;;;;;14.90;4.50;;;;;;;31.33;43.91;97619.27;67571;1281;1016084;-62
2023/08/01 13:05:26;;;;;;;18.30;4.70;;;;;;;31.23;43.94;97616.69;67563;1281;1019270;-62
2023/08/01 13:08:29;;;;;;;15.90;4.80;;;;;;;31.17;44.22;97618.20;67577;1281;1018040;-61
2023/08/01 13:11:31;;;;;;;17.20;5.20;;;;;;;31.33;44.12;97618.55;67629;1281;1016324;-61
2023/08/01 13:14:34;;;;;;;17.00;4.80;;;;;;;31.40;44.14;97613.20;67629;1280;1016375;-61
2023/08/01 13:17:36;;;;;;;16.60;4.70;;;;;;;31.41;44.35;97614.62;67623;1281;1016491;-62
2023/08/01 13:20:39;;;;;;;15.80;4.70;;;;;;;31.34;44.60;97616.55;67646;1281;1016797;-62
2023/08/01 13:23:41;;;;;;;14.60;4.10;;;;;;;31.19;44.68;97613.34;67612;1280;1016260;-63
2023/08/01 13:26:43;;;;;;;14.80;4.40;;;;;;;31.14;44.57;97616.61;67573;1281;1016497;-63
2023/08/01 13:29:46;;;;;;;12.90;3.80;;;;;;;30.90;44.52;97619.70;67566;1281;1016292;-63
2023/08/01 13:32:48;;;;;;;14.60;4.00;;;;;;;30.66;44.70;97622.14;67642;1281;1016487;-63
2023/08/01 13:35:51;;;;;;;13.80;3.90;;;;;;;30.72;44.47;97623.88;67643;1281;1016486;-61
2023/08/01 13:38:53;;;;;;;13.50;3.70;;;;;;;30.62;44.51;97623.39;67594;1281;1016425;-62
2023/08/01 13:41:55;;;;;;;16.00;4.10;;;;;;;30.41;44.58;97623.67;67631;1281;1017080;-62
2023/08/01 13:44:58;;;;;;;14.30;3.90;;;;;;;30.41;44.73;97621.13;67590;1281;1016065;-61
2023/08/01 13:48:00;;;;;;;14.10;4.30;;;;;;;30.33;44.74;97616.75;67589;1281;1016435;-63
2023/08/01 13:51:03;;;;;;;18.30;6.30;;;;;;;30.26;45.07;97618.80;67636;1281;1016389;-62
2023/08/01 13:54:06;;;;;;;13.60;4.10;;;;;;;30.44;44.65;97617.70;67653;1281;1016484;-63
2023/08/01 13:57:09;;;;;;;13.20;4.10;;;;;;;30.55;44.49;97614.27;67649;1281;1016444;-61
2023/08/01 14:00:11;;;;;;;11.20;3.80;;;;;;;30.32;44.61;97611.23;67627;1281;1016260;-63